Time;durP1;ratioP1;P1;durP2;ratioP2;P2;SDS_P1;SDS_P2;PMS_P1;PMS_P2;Temp;Humidity;BMP_temperature;BMP_pressure;BME280_temperature;BME280_humidity;BME280_pressure;Samples;Min_cycle;Max_cycle;Signal;HPM_P1;HPM_P2
2022/06/14 00:03:44;;;;;;;3.95;0.70;;;18.60;79.60;;;;;;5036050;28;20432;-74
2022/06/14 00:06:32;;;;;;;1.77;0.90;;;18.70;79.40;;;;;;5031563;28;20409;-74
2022/06/14 00:09:00;;;;;;;3.03;0.80;;;18.70;79.10;;;;;;5034915;28;20041;-74
2022/06/14 00:11:31;;;;;;;0.93;0.60;;;18.60;79.70;;;;;;5033338;28;20045;-74
2022/06/14 00:13:59;;;;;;;3.17;0.80;;;18.60;79.90;;;;;;5033699;28;20053;-74
2022/06/14 00:16:29;;;;;;;1.98;1.08;;;18.60;78.80;;;;;;5038883;28;20044;-74
2022/06/14 00:18:56;;;;;;;2.90;0.80;;;18.70;78.40;;;;;;5034252;28;20118;-74
2022/06/14 00:21:23;;;;;;;2.80;0.60;;;18.70;78.40;;;;;;5037179;28;20033;-74
2022/06/14 00:23:52;;;;;;;1.85;0.70;;;18.70;78.40;;;;;;5035454;28;20037;-75
2022/06/14 00:26:19;;;;;;;3.47;1.02;;;18.70;79.20;;;;;;5038146;28;20048;-74
2022/06/14 00:28:46;;;;;;;2.45;0.60;;;18.60;79.00;;;;;;5033482;28;20139;-74
2022/06/14 00:31:18;;;;;;;2.45;0.90;;;18.60;79.20;;;;;;5034340;28;20514;-74
2022/06/14 00:33:45;;;;;;;2.47;0.70;;;18.50;79.50;;;;;;5033566;28;20053;-73
2022/06/14 00:36:23;;;;;;;2.10;0.85;;;18.40;79.60;;;;;;5032727;28;20075;-74
2022/06/14 00:38:51;;;;;;;1.73;0.90;;;18.40;80.20;;;;;;5039638;28;20043;-74
2022/06/14 00:41:26;;;;;;;4.30;1.17;;;18.30;80.10;;;;;;5048496;28;20049;-74
2022/06/14 00:43:53;;;;;;;4.03;1.08;;;18.30;81.50;;;;;;5034504;28;20041;-75
2022/06/14 00:46:25;;;;;;;2.70;1.13;;;18.20;82.30;;;;;;5032522;28;20123;-74
2022/06/14 00:49:05;;;;;;;3.85;1.10;;;18.20;82.30;;;;;;5035739;28;20083;-74
2022/06/14 00:51:42;;;;;;;2.30;1.38;;;18.10;81.80;;;;;;5036032;28;20056;-74
2022/06/14 00:54:16;;;;;;;2.75;1.20;;;18.10;83.20;;;;;;5036284;28;20045;-74
2022/06/14 00:56:58;;;;;;;1.90;1.02;;;18.20;83.20;;;;;;5033571;28;20044;-74
2022/06/14 00:59:38;;;;;;;3.05;1.17;;;18.10;83.00;;;;;;5037997;28;20102;-74
2022/06/14 01:02:21;;;;;;;3.05;1.10;;;18.20;83.60;;;;;;5036649;28;20041;-74
2022/06/14 01:04:49;;;;;;;2.60;0.90;;;18.20;84.10;;;;;;5036639;28;20069;-75
2022/06/14 01:07:29;;;;;;;3.17;1.02;;;18.20;83.90;;;;;;5032624;28;20131;-74
2022/06/14 01:10:16;;;;;;;2.30;1.25;;;18.10;83.50;;;;;;5035666;28;20543;-74
2022/06/14 01:12:47;;;;;;;2.08;1.23;;;18.00;83.20;;;;;;5031962;28;20044;-74
2022/06/14 01:15:17;;;;;;;1.77;1.02;;;17.80;84.20;;;;;;5027363;28;20049;-74
2022/06/14 01:18:01;;;;;;;2.47;1.00;;;17.80;84.50;;;;;;5024180;28;20049;-74
2022/06/14 01:20:28;;;;;;;3.38;1.30;;;17.70;85.60;;;;;;5036534;28;20060;-74
2022/06/14 01:22:57;;;;;;;3.60;1.02;;;17.80;85.20;;;;;;5038628;28;20527;-74
2022/06/14 01:25:28;;;;;;;1.50;1.02;;;17.90;84.90;;;;;;5034275;28;20610;-74
2022/06/14 01:27:57;;;;;;;2.78;1.60;;;17.90;84.70;;;;;;5020545;28;20057;-74
2022/06/14 01:30:36;;;;;;;1.90;1.13;;;17.80;85.40;;;;;;5033923;28;20564;-73
2022/06/14 01:33:09;;;;;;;1.50;1.10;;;17.80;86.80;;;;;;5019407;28;20095;-74
2022/06/14 01:35:38;;;;;;;3.28;1.73;;;17.70;86.70;;;;;;5034489;28;20055;-74
2022/06/14 01:38:10;;;;;;;2.03;1.33;;;17.60;87.40;;;;;;5033199;28;20041;-73
2022/06/14 01:40:47;;;;;;;8.10;1.50;;;17.50;87.50;;;;;;5045933;28;20103;-74
2022/06/14 01:43:29;;;;;;;2.70;1.40;;;17.50;87.10;;;;;;5032530;28;20488;-74
2022/06/14 01:46:20;;;;;;;3.07;1.73;;;17.30;87.60;;;;;;5034355;28;20045;-74
2022/06/14 01:52:14;;;;;;;4.07;1.75;;;16.80;90.90;;;;;;5033179;28;20103;-74
2022/06/14 01:55:00;;;;;;;2.90;2.30;;;16.60;92.00;;;;;;5035081;28;20073;-74
2022/06/14 01:57:46;;;;;;;3.47;1.50;;;16.70;92.30;;;;;;5031127;28;20427;-73
2022/06/14 02:00:21;;;;;;;3.05;1.45;;;16.90;91.70;;;;;;5033598;28;20041;-73
2022/06/14 02:06:23;;;;;;;3.13;1.65;;;17.00;91.00;;;;;;5035498;28;20045;-73
2022/06/14 02:09:01;;;;;;;2.85;1.92;;;17.10;90.70;;;;;;5032871;28;20049;-73
2022/06/14 02:11:34;;;;;;;3.20;1.73;;;17.20;90.40;;;;;;5037905;28;20041;-73
2022/06/14 02:14:04;;;;;;;6.03;1.75;;;17.10;90.10;;;;;;5034515;28;20112;-73
2022/06/14 02:16:39;;;;;;;2.78;1.50;;;17.10;90.40;;;;;;5033551;28;20392;-74
2022/06/14 02:19:08;;;;;;;2.63;1.40;;;17.10;90.10;;;;;;5032204;28;20740;-74
2022/06/14 02:21:43;;;;;;;1.85;1.50;;;17.20;90.20;;;;;;5015724;28;20037;-74
2022/06/14 02:24:14;;;;;;;5.28;1.98;;;17.00;90.40;;;;;;5037959;28;20045;-73
2022/06/14 02:26:52;;;;;;;4.82;1.58;;;17.00;90.40;;;;;;5031815;28;20060;-73
2022/06/14 02:29:30;;;;;;;4.22;1.45;;;16.90;90.70;;;;;;5029607;28;20061;-74
2022/06/14 02:32:23;;;;;;;4.22;2.20;;;17.00;90.60;;;;;;5037888;28;20048;-74
2022/06/14 02:35:06;;;;;;;7.03;2.22;;;17.00;90.50;;;;;;5037045;28;20057;-74
2022/06/14 02:37:54;;;;;;;3.47;1.92;;;17.00;90.60;;;;;;5037618;28;20745;-74
2022/06/14 02:40:33;;;;;;;4.60;1.50;;;17.20;90.20;;;;;;5017712;28;20503;-74
2022/06/14 02:43:03;;;;;;;3.00;1.77;;;17.20;90.00;;;;;;5036747;28;20043;-74
2022/06/14 02:45:39;;;;;;;5.30;1.83;;;17.20;89.70;;;;;;5034606;28;20065;-74
2022/06/14 02:48:22;;;;;;;3.83;1.70;;;17.20;90.50;;;;;;5038661;28;20087;-74
2022/06/14 02:51:02;;;;;;;3.63;2.03;;;17.10;90.90;;;;;;5034348;28;20037;-74
2022/06/14 02:53:36;;;;;;;4.57;2.20;;;17.10;91.20;;;;;;5054205;28;20140;-74
2022/06/14 02:56:34;;;;;;;6.10;2.40;;;17.10;91.00;;;;;;5019575;28;20053;-74
2022/06/14 02:59:27;;;;;;;4.35;1.90;;;17.10;91.00;;;;;;5034561;28;20046;-74
2022/06/14 03:02:00;;;;;;;;;;;17.00;91.00;;;;;;5036986;28;20036;-74
2022/06/14 03:04:51;;;;;;;4.13;2.00;;;17.00;91.70;;;;;;5034756;28;19924;-74
2022/06/14 03:07:25;;;;;;;2.75;1.73;;;16.90;91.60;;;;;;5037754;28;20048;-74
2022/06/14 03:09:53;;;;;;;4.30;2.28;;;16.90;91.80;;;;;;5036993;28;20048;-74
2022/06/14 03:12:32;;;;;;;5.82;2.58;;;16.90;92.10;;;;;;5035496;28;20045;-74
2022/06/14 03:15:23;;;;;;;4.65;2.55;;;16.90;92.50;;;;;;5039704;28;20519;-73
2022/06/14 03:18:27;;;;;;;4.32;1.67;;;17.00;92.40;;;;;;5039678;28;20026;-74
2022/06/14 03:21:16;;;;;;;8.50;2.08;;;16.90;92.90;;;;;;5039261;28;20103;-74
2022/06/14 03:23:50;;;;;;;3.90;2.20;;;16.90;92.90;;;;;;5032226;28;20046;-74
2022/06/14 03:26:45;;;;;;;5.15;2.22;;;16.90;93.00;;;;;;5036715;28;20468;-74
2022/06/14 03:29:34;;;;;;;9.52;2.30;;;16.90;92.70;;;;;;5035443;28;20064;-74
2022/06/14 03:32:46;;;;;;;3.63;2.33;;;16.90;92.70;;;;;;5036716;28;20045;-73
2022/06/14 03:35:26;;;;;;;3.38;1.92;;;17.00;92.70;;;;;;5030901;28;20042;-74
2022/06/14 03:37:55;;;;;;;2.90;1.77;;;17.00;92.50;;;;;;5036965;28;20047;-74
2022/06/14 03:40:24;;;;;;;4.28;2.45;;;17.00;92.70;;;;;;5034548;28;20385;-74
2022/06/14 03:42:52;;;;;;;4.43;2.58;;;17.00;92.30;;;;;;5038104;28;20053;-74
2022/06/14 03:45:33;;;;;;;4.63;2.38;;;17.10;92.30;;;;;;5041325;28;20063;-74
2022/06/14 03:48:04;;;;;;;7.18;2.42;;;17.10;92.90;;;;;;5035504;28;20057;-74
2022/06/14 03:50:50;;;;;;;5.95;2.30;;;17.10;92.00;;;;;;5031387;28;20048;-73
2022/06/14 03:53:49;;;;;;;7.93;2.55;;;17.10;92.70;;;;;;5032405;28;20047;-73
2022/06/14 03:56:31;;;;;;;6.80;2.63;;;17.00;92.50;;;;;;5037176;28;20516;-73
2022/06/14 03:59:37;;;;;;;7.15;1.90;;;17.10;92.10;;;;;;5033123;28;20048;-73
2022/06/14 04:02:20;;;;;;;3.67;1.73;;;17.20;91.80;;;;;;5001743;28;20562;-73
2022/06/14 04:05:02;;;;;;;6.47;2.90;;;17.30;91.70;;;;;;5023115;28;20180;-73
2022/06/14 04:07:54;;;;;;;2.75;1.67;;;17.40;91.60;;;;;;5024914;28;20451;-74
2022/06/14 04:10:36;;;;;;;3.58;1.52;;;17.50;92.00;;;;;;5034616;28;20041;-74
2022/06/14 04:13:49;;;;;;;4.75;1.70;;;17.60;91.20;;;;;;5028014;28;20047;-74
2022/06/14 04:16:23;;;;;;;4.90;2.35;;;17.70;90.90;;;;;;5035086;28;20158;-74
2022/06/14 04:19:21;;;;;;;5.30;1.58;;;17.70;91.20;;;;;;5038058;28;20108;-74
2022/06/14 04:21:55;;;;;;;5.10;2.13;;;17.90;90.80;;;;;;5038644;28;20079;-74
2022/06/14 04:24:25;;;;;;;2.65;1.55;;;17.90;91.30;;;;;;5023869;28;20133;-75
2022/06/14 04:27:01;;;;;;;3.13;1.65;;;18.00;90.80;;;;;;5039340;28;20043;-74
2022/06/14 04:29:56;;;;;;;4.63;1.75;;;18.00;91.40;;;;;;5041003;28;20060;-75
2022/06/14 04:32:33;;;;;;;3.72;1.95;;;18.10;91.60;;;;;;5029439;28;20052;-74
2022/06/14 04:35:06;;;;;;;4.47;2.60;;;18.20;90.70;;;;;;5032329;28;20120;-74
2022/06/14 04:37:45;;;;;;;6.30;2.42;;;18.20;90.80;;;;;;5031731;28;20465;-75
2022/06/14 04:40:24;;;;;;;4.25;2.42;;;18.30;91.80;;;;;;5019239;28;20661;-73
2022/06/14 04:43:05;;;;;;;5.03;1.90;;;18.30;91.50;;;;;;5035477;28;20053;-74
2022/06/14 04:45:41;;;;;;;5.50;1.88;;;18.30;90.90;;;;;;5032315;28;20041;-73
2022/06/14 04:48:34;;;;;;;3.60;2.03;;;18.50;90.50;;;;;;5018850;28;20084;-73
2022/06/14 04:51:12;;;;;;;3.95;1.95;;;18.50;90.90;;;;;;5030758;28;20051;-74
2022/06/14 04:53:49;;;;;;;5.82;2.47;;;18.60;91.50;;;;;;5036499;28;20110;-73
2022/06/14 04:56:24;;;;;;;4.03;2.10;;;18.60;91.00;;;;;;5036188;28;20048;-72
2022/06/14 04:59:04;;;;;;;6.55;1.98;;;18.70;89.80;;;;;;5036622;28;20037;-72
2022/06/14 05:01:50;;;;;;;5.38;1.88;;;18.70;90.30;;;;;;5032795;28;21071;-73
2022/06/14 05:04:25;;;;;;;4.75;1.70;;;18.70;87.30;;;;;;5000962;28;20059;-73
2022/06/14 05:07:26;;;;;;;3.10;1.70;;;18.90;87.20;;;;;;5017645;28;20080;-74
2022/06/14 05:09:57;;;;;;;4.10;1.67;;;19.10;85.40;;;;;;5001925;28;20057;-73
2022/06/14 05:12:36;;;;;;;2.90;1.80;;;19.20;84.90;;;;;;5006966;28;20792;-73
2022/06/14 05:15:31;;;;;;;4.72;1.55;;;19.40;84.40;;;;;;5007900;28;20084;-73
2022/06/14 05:18:04;;;;;;;3.35;1.63;;;19.60;85.50;;;;;;5001403;28;20126;-74
2022/06/14 05:20:39;;;;;;;3.05;1.38;;;19.60;80.60;;;;;;4985433;28;20144;-75
2022/06/14 05:23:18;;;;;;;5.20;1.35;;;19.60;78.90;;;;;;5003651;28;20044;-75
2022/06/14 05:26:02;;;;;;;6.78;1.60;;;19.70;76.30;;;;;;5001314;28;20045;-75
2022/06/14 05:29:01;;;;;;;3.35;1.60;;;19.90;78.10;;;;;;5007245;28;21071;-75
2022/06/14 05:31:39;;;;;;;3.03;1.20;;;20.10;78.80;;;;;;5007504;28;20131;-75
2022/06/14 05:34:20;;;;;;;3.75;1.52;;;20.30;76.40;;;;;;5001199;28;20045;-75
2022/06/14 05:36:59;;;;;;;5.10;1.70;;;20.30;73.60;;;;;;4998921;28;20068;-75
2022/06/14 05:39:41;;;;;;;4.38;1.25;;;20.30;73.00;;;;;;4997976;28;20191;-75
2022/06/14 05:42:19;;;;;;;5.75;1.20;;;20.20;72.30;;;;;;4984719;28;20072;-75
2022/06/14 05:44:51;;;;;;;2.47;0.88;;;19.90;73.70;;;;;;5000739;28;20053;-75
2022/06/14 05:47:36;;;;;;;2.80;1.33;;;19.80;75.70;;;;;;4995471;28;20278;-73
2022/06/14 05:50:13;;;;;;;4.88;1.38;;;19.80;74.10;;;;;;5014049;28;20317;-71
2022/06/14 05:53:01;;;;;;;5.35;1.85;;;20.10;74.50;;;;;;5003387;28;20100;-71
2022/06/14 05:55:40;;;;;;;2.53;1.00;;;20.00;73.80;;;;;;4998440;28;22282;-71
2022/06/14 05:58:17;;;;;;;4.30;1.10;;;20.50;72.70;;;;;;4997047;28;22696;-70
2022/06/14 06:00:52;;;;;;;5.05;1.17;;;20.60;71.90;;;;;;4994798;28;20045;-71
2022/06/14 06:03:31;;;;;;;3.15;1.33;;;20.80;72.00;;;;;;4999462;28;20060;-71
2022/06/14 06:06:06;;;;;;;5.05;1.20;;;20.90;69.70;;;;;;5002212;28;20060;-71
2022/06/14 06:08:37;;;;;;;3.10;1.08;;;21.00;68.60;;;;;;5001262;28;20106;-71
2022/06/14 06:11:19;;;;;;;6.80;1.23;;;20.90;66.40;;;;;;5000216;28;20073;-73
2022/06/14 06:13:52;;;;;;;3.63;1.27;;;21.10;66.70;;;;;;5001872;28;20056;-73
2022/06/14 06:16:39;;;;;;;6.10;1.35;;;21.10;66.00;;;;;;5001540;28;20533;-73
2022/06/14 06:19:16;;;;;;;3.55;1.10;;;21.10;64.90;;;;;;4998109;28;20044;-70
2022/06/14 06:21:53;;;;;;;2.10;0.70;;;20.90;63.80;;;;;;5000236;28;20045;-71
2022/06/14 06:24:31;;;;;;;2.78;0.93;;;21.10;65.50;;;;;;5002792;28;21226;-70
2022/06/14 06:27:08;;;;;;;3.53;1.10;;;21.10;63.10;;;;;;4997450;28;20118;-71
2022/06/14 06:29:57;;;;;;;4.07;1.00;;;21.20;66.00;;;;;;4999998;28;20057;-71
2022/06/14 06:32:26;;;;;;;3.50;1.35;;;21.30;63.70;;;;;;4998640;28;20125;-71
2022/06/14 06:34:55;;;;;;;3.05;1.10;;;21.60;63.80;;;;;;5000603;28;20045;-71
2022/06/14 06:37:31;;;;;;;5.13;1.08;;;21.80;64.10;;;;;;4997639;28;20054;-71
2022/06/14 06:40:01;;;;;;;5.65;1.23;;;21.90;63.20;;;;;;4998438;28;20052;-71
2022/06/14 06:42:53;;;;;;;6.10;1.00;;;21.90;62.00;;;;;;4996817;28;20055;-72
2022/06/14 06:45:24;;;;;;;2.83;0.98;;;21.90;61.60;;;;;;4992447;28;20700;-71
2022/06/14 06:47:54;;;;;;;4.25;1.08;;;21.90;61.10;;;;;;5008619;28;20053;-71
2022/06/14 06:50:33;;;;;;;5.15;1.60;;;21.80;60.70;;;;;;4997564;28;20057;-71
2022/06/14 06:53:03;;;;;;;2.63;1.25;;;22.00;61.10;;;;;;5010629;28;20089;-72
2022/06/14 06:55:59;;;;;;;3.03;0.60;;;22.20;62.80;;;;;;4998813;28;20057;-72
2022/06/14 06:58:43;;;;;;;2.92;1.10;;;22.40;61.50;;;;;;4992010;28;20045;-71
2022/06/14 07:01:31;;;;;;;1.98;1.10;;;22.40;60.20;;;;;;4982173;28;20064;-72
2022/06/14 07:07:28;;;;;;;3.72;0.70;;;22.50;60.90;;;;;;4996795;28;20046;-72
2022/06/14 07:10:05;;;;;;;4.35;0.60;;;22.50;58.40;;;;;;4993910;28;20052;-72
2022/06/14 07:12:59;;;;;;;3.90;1.17;;;22.40;57.30;;;;;;4994231;28;20041;-72
2022/06/14 07:15:39;;;;;;;4.15;1.10;;;22.50;57.80;;;;;;4990522;28;20053;-72
2022/06/14 07:18:14;;;;;;;2.05;0.93;;;22.70;57.50;;;;;;4996782;28;20685;-71
2022/06/14 07:21:00;;;;;;;3.15;1.33;;;22.50;57.50;;;;;;5007676;28;20061;-71
2022/06/14 07:23:49;;;;;;;4.47;1.33;;;22.40;55.10;;;;;;4994450;28;20114;-72
2022/06/14 07:26:26;;;;;;;2.78;0.80;;;22.50;55.80;;;;;;4993159;28;20188;-71
2022/06/14 07:29:18;;;;;;;5.10;1.00;;;22.90;56.00;;;;;;4994156;28;20061;-72
2022/06/14 07:32:08;;;;;;;4.25;1.10;;;22.90;54.30;;;;;;4994381;28;20060;-71
2022/06/14 07:34:36;;;;;;;3.15;0.68;;;22.40;53.40;;;;;;4991979;28;22713;-72
2022/06/14 07:37:24;;;;;;;3.05;0.70;;;22.70;54.10;;;;;;4993039;28;20044;-72
2022/06/14 07:39:58;;;;;;;4.95;0.50;;;22.80;54.50;;;;;;4995198;28;20115;-72
2022/06/14 07:42:51;;;;;;;3.20;0.63;;;22.90;55.50;;;;;;4992305;28;20060;-71
2022/06/14 07:45:40;;;;;;;3.90;0.70;;;22.90;53.20;;;;;;4998979;28;20042;-72
2022/06/14 07:48:26;;;;;;;6.22;0.95;;;23.10;53.30;;;;;;4992256;28;20046;-72
2022/06/14 07:51:05;;;;;;;3.90;0.95;;;23.00;52.50;;;;;;4998606;28;20049;-73
2022/06/14 07:53:43;;;;;;;1.83;0.40;;;23.00;51.40;;;;;;4995012;28;20048;-71
2022/06/14 07:56:18;;;;;;;6.35;0.80;;;23.10;53.20;;;;;;4994660;28;20049;-71
2022/06/14 07:59:14;;;;;;;2.00;0.60;;;23.10;50.50;;;;;;4998808;28;20059;-72
2022/06/14 08:02:00;;;;;;;3.60;0.47;;;23.10;49.80;;;;;;4985018;28;20087;-71
2022/06/14 08:04:43;;;;;;;3.33;0.57;;;23.20;49.90;;;;;;4983449;28;20094;-70
2022/06/14 08:07:17;;;;;;;5.13;0.55;;;23.00;48.00;;;;;;4985481;28;20056;-71
2022/06/14 08:10:06;;;;;;;4.72;0.60;;;23.20;50.20;;;;;;4973313;28;20041;-72
2022/06/14 08:12:53;;;;;;;2.85;0.40;;;23.20;49.30;;;;;;4988250;28;20045;-72
2022/06/14 08:15:43;;;;;;;3.33;0.40;;;23.30;46.90;;;;;;4999376;28;20053;-72
2022/06/14 08:18:21;;;;;;;4.05;0.55;;;23.20;44.70;;;;;;4995307;28;20048;-72
2022/06/14 08:21:05;;;;;;;4.68;0.50;;;23.20;44.20;;;;;;5002486;28;20538;-72
2022/06/14 08:23:57;;;;;;;2.67;0.70;;;23.50;45.60;;;;;;4994150;28;20041;-72
2022/06/14 08:26:33;;;;;;;3.17;0.50;;;23.30;47.90;;;;;;4992254;28;20048;-71
2022/06/14 08:29:28;;;;;;;6.53;0.90;;;23.40;48.30;;;;;;4978255;28;20112;-71
2022/06/14 08:32:11;;;;;;;5.38;1.02;;;23.40;47.90;;;;;;5010012;28;22809;-72
2022/06/14 08:34:48;;;;;;;4.20;0.80;;;23.40;49.00;;;;;;4993828;28;21157;-72
2022/06/14 08:37:20;;;;;;;4.22;1.40;;;23.30;47.80;;;;;;4990163;28;20087;-72
2022/06/14 08:40:00;;;;;;;;;;;23.40;50.70;;;;;;4988977;28;20042;-71
2022/06/14 08:42:41;;;;;;;2.25;0.60;;;23.70;49.40;;;;;;4993132;28;19929;-71
2022/06/14 08:45:21;;;;;;;3.65;0.52;;;23.60;47.80;;;;;;4975553;28;20605;-70
2022/06/14 08:48:08;;;;;;;2.30;0.43;;;23.40;44.90;;;;;;4995276;28;20139;-71
2022/06/14 08:50:35;;;;;;;2.08;0.40;;;23.40;45.20;;;;;;4992090;28;20053;-72
2022/06/14 08:53:30;;;;;;;2.90;0.47;;;23.20;45.20;;;;;;4990327;28;20080;-70
2022/06/14 08:56:06;;;;;;;6.75;0.95;;;23.30;45.70;;;;;;4990717;28;20079;-71
2022/06/14 08:58:42;;;;;;;3.97;0.77;;;23.30;46.50;;;;;;4984074;28;22635;-72
2022/06/14 09:01:53;;;;;;;1.90;0.43;;;23.60;47.30;;;;;;4989619;28;20875;-71
2022/06/14 09:04:41;;;;;;;1.67;0.38;;;23.90;47.60;;;;;;4996756;28;20057;-71
2022/06/14 09:07:18;;;;;;;4.28;0.50;;;24.00;46.70;;;;;;4993152;28;22445;-70
2022/06/14 09:10:21;;;;;;;4.32;1.15;;;23.80;46.80;;;;;;4989295;28;20050;-72
2022/06/14 09:13:16;;;;;;;4.50;0.85;;;23.60;45.50;;;;;;4996847;28;20526;-74
2022/06/14 09:16:02;;;;;;;2.90;0.65;;;23.70;46.50;;;;;;5000542;28;20091;-72
2022/06/14 09:18:44;;;;;;;1.42;0.65;;;23.80;46.20;;;;;;4995126;28;20057;-72
2022/06/14 09:21:46;;;;;;;4.03;0.40;;;23.80;44.70;;;;;;4997515;28;20908;-72
2022/06/14 09:24:27;;;;;;;3.05;0.30;;;23.70;44.30;;;;;;5002762;28;20061;-73
2022/06/14 09:27:39;;;;;;;2.17;0.28;;;23.60;42.00;;;;;;4995231;28;20075;-74
2022/06/14 09:30:34;;;;;;;2.28;0.32;;;23.50;44.10;;;;;;5017003;28;20065;-74
2022/06/14 09:33:10;;;;;;;2.53;0.70;;;23.60;43.10;;;;;;4991578;28;20059;-72
2022/06/14 09:36:08;;;;;;;1.67;0.52;;;23.60;43.80;;;;;;4995638;28;20044;-75
2022/06/14 09:39:00;;;;;;;1.67;0.30;;;23.60;43.10;;;;;;4992730;28;20129;-72
2022/06/14 09:41:47;;;;;;;1.67;0.30;;;23.40;42.30;;;;;;4990076;28;23201;-74
2022/06/14 09:44:20;;;;;;;1.45;0.43;;;23.30;39.30;;;;;;4994810;28;20049;-74
2022/06/14 09:47:10;;;;;;;3.10;0.30;;;23.50;43.10;;;;;;4998973;28;22441;-73
2022/06/14 09:49:59;;;;;;;1.58;0.35;;;23.30;42.80;;;;;;4987870;28;20054;-74
2022/06/14 09:52:51;;;;;;;2.53;0.40;;;23.20;44.10;;;;;;4997435;28;20083;-72
2022/06/14 09:55:52;;;;;;;4.63;0.77;;;22.70;42.00;;;;;;4999517;28;20050;-73
2022/06/14 09:58:44;;;;;;;4.43;0.40;;;22.60;42.00;;;;;;4976438;28;20045;-71
2022/06/14 10:01:11;;;;;;;2.20;0.45;;;23.20;43.10;;;;;;4994782;28;20046;-73
2022/06/14 10:04:02;;;;;;;3.40;0.60;;;23.00;43.30;;;;;;5004867;28;20045;-73
2022/06/14 10:06:48;;;;;;;1.75;0.40;;;22.80;44.80;;;;;;4995949;28;20520;-73
2022/06/14 10:09:37;;;;;;;4.00;0.65;;;22.70;45.90;;;;;;4993121;28;20053;-73
2022/06/14 10:12:11;;;;;;;4.03;0.60;;;23.20;45.90;;;;;;4994549;28;20064;-72
2022/06/14 10:14:43;;;;;;;2.70;0.80;;;23.20;44.40;;;;;;4993866;28;21988;-73
2022/06/14 10:17:31;;;;;;;2.08;0.85;;;23.50;44.90;;;;;;4995196;28;20074;-73
2022/06/14 10:20:27;;;;;;;3.40;0.60;;;23.50;44.60;;;;;;4980439;28;20496;-72
2022/06/14 10:23:16;;;;;;;2.30;1.30;;;23.40;43.30;;;;;;4994565;28;20056;-73
2022/06/14 10:28:54;;;;;;;1.35;0.50;;;23.60;43.40;;;;;;4994499;28;20057;-72
2022/06/14 10:31:27;;;;;;;1.63;0.65;;;23.50;44.70;;;;;;4987320;28;20175;-74
2022/06/14 10:34:33;;;;;;;5.28;0.73;;;23.60;44.40;;;;;;4993735;28;20084;-74
2022/06/14 10:37:31;;;;;;;1.58;0.60;;;23.50;44.60;;;;;;4977522;28;20103;-74
2022/06/14 10:40:26;;;;;;;2.78;0.50;;;23.10;43.90;;;;;;4981281;28;20074;-73
2022/06/14 10:43:08;;;;;;;3.85;0.55;;;23.10;45.10;;;;;;4972394;28;20065;-73
2022/06/14 10:45:44;;;;;;;3.60;0.75;;;23.40;46.40;;;;;;4994940;28;20273;-73
2022/06/14 10:48:32;;;;;;;7.50;1.30;;;23.20;46.40;;;;;;4992617;28;20140;-73
2022/06/14 10:51:05;;;;;;;4.63;0.82;;;22.80;48.80;;;;;;4986492;28;20053;-73
2022/06/14 10:53:54;;;;;;;3.50;0.68;;;22.50;47.50;;;;;;4992666;28;20676;-73
2022/06/14 10:56:49;;;;;;;2.28;0.45;;;22.70;47.80;;;;;;4977494;28;20058;-73
2022/06/14 10:59:42;;;;;;;4.50;0.75;;;23.20;46.80;;;;;;4991944;28;20072;-72
2022/06/14 11:02:17;;;;;;;1.85;0.38;;;23.30;46.80;;;;;;4986885;28;20666;-73
2022/06/14 11:04:51;;;;;;;2.22;0.65;;;23.40;47.40;;;;;;4991993;28;20045;-72
2022/06/14 11:08:05;;;;;;;2.83;0.75;;;23.50;46.70;;;;;;4984478;28;20118;-73
2022/06/14 11:10:48;;;;;;;1.67;0.50;;;23.80;46.60;;;;;;4987331;28;20088;-73
2022/06/14 11:13:48;;;;;;;2.38;0.60;;;24.00;45.70;;;;;;5001726;28;20731;-73
2022/06/14 11:16:44;;;;;;;3.25;1.05;;;23.90;46.70;;;;;;4995051;28;20041;-72
2022/06/14 11:19:39;;;;;;;2.58;0.82;;;24.20;46.50;;;;;;4994711;28;20106;-72
2022/06/14 11:22:36;;;;;;;2.03;0.68;;;24.30;44.80;;;;;;4997745;28;20114;-73
2022/06/14 11:25:06;;;;;;;3.20;0.65;;;24.30;45.80;;;;;;4996191;28;20150;-72
2022/06/14 11:28:00;;;;;;;3.30;0.43;;;24.20;46.30;;;;;;4995101;28;20121;-73
2022/06/14 11:30:46;;;;;;;4.57;0.60;;;24.30;47.60;;;;;;4990016;28;21071;-73
2022/06/14 11:33:45;;;;;;;3.13;0.68;;;23.80;47.70;;;;;;4996006;28;20052;-73
2022/06/14 11:36:51;;;;;;;2.80;0.70;;;23.40;47.10;;;;;;4980586;28;20049;-72
2022/06/14 11:39:31;;;;;;;3.53;0.82;;;23.10;48.40;;;;;;4986641;28;20053;-72
2022/06/14 11:42:05;;;;;;;2.83;0.65;;;22.90;48.90;;;;;;4985658;28;20054;-72
2022/06/14 11:45:10;;;;;;;6.38;1.08;;;22.70;48.20;;;;;;4994433;28;20052;-72
2022/06/14 11:47:51;;;;;;;4.03;0.60;;;22.70;48.50;;;;;;4989797;28;20057;-72
2022/06/14 11:50:39;;;;;;;3.38;1.35;;;22.80;48.10;;;;;;4993198;28;20045;-72
2022/06/14 11:53:35;;;;;;;6.75;0.55;;;22.80;47.40;;;;;;4997447;28;20146;-71
2022/06/14 11:56:22;;;;;;;7.75;0.60;;;22.90;46.40;;;;;;4987315;28;20049;-72
2022/06/14 11:59:14;;;;;;;4.13;0.80;;;23.10;46.80;;;;;;4996294;28;20049;-72
2022/06/14 12:01:59;;;;;;;2.45;0.85;;;23.30;49.30;;;;;;4994675;28;20136;-72
2022/06/14 12:04:26;;;;;;;4.20;0.77;;;22.90;49.50;;;;;;4988917;28;20171;-72
2022/06/14 12:07:21;;;;;;;4.03;0.60;;;22.70;50.10;;;;;;4993333;28;20049;-72
2022/06/14 12:10:07;;;;;;;2.85;0.70;;;22.60;48.50;;;;;;5001225;28;20773;-71
2022/06/14 12:12:47;;;;;;;3.53;0.88;;;22.70;49.00;;;;;;4983336;28;20048;-72
2022/06/14 12:15:27;;;;;;;5.45;1.00;;;22.60;50.00;;;;;;4991577;28;20114;-71
2022/06/14 12:18:01;;;;;;;5.07;0.98;;;22.70;48.60;;;;;;4994367;28;20064;-74
2022/06/14 12:20:34;;;;;;;3.72;0.90;;;22.70;50.00;;;;;;4996563;28;20040;-72
2022/06/14 12:23:10;;;;;;;1.30;0.45;;;22.70;49.70;;;;;;4991836;28;20187;-72
2022/06/14 12:28:43;;;;;;;2.25;0.60;;;22.40;49.90;;;;;;4994915;28;20061;-71
2022/06/14 12:31:25;;;;;;;3.63;0.93;;;22.40;49.60;;;;;;4993420;28;20118;-72
2022/06/14 12:33:59;;;;;;;3.40;0.85;;;22.30;48.30;;;;;;4989074;28;25594;-72
2022/06/14 12:36:44;;;;;;;3.00;0.70;;;22.30;49.20;;;;;;4992760;28;20075;-72
2022/06/14 12:39:34;;;;;;;5.05;0.70;;;22.30;49.40;;;;;;4994556;28;20041;-72
2022/06/14 12:42:09;;;;;;;7.95;1.20;;;22.20;50.80;;;;;;4989080;28;20083;-72
2022/06/14 12:45:08;;;;;;;4.63;0.70;;;22.30;50.60;;;;;;4987654;28;20654;-72
2022/06/14 12:47:54;;;;;;;2.58;0.70;;;22.40;50.00;;;;;;4995715;28;20472;-71
2022/06/14 12:50:25;;;;;;;4.18;1.10;;;22.30;50.70;;;;;;4987131;28;20049;-72
2022/06/14 12:52:58;;;;;;;2.80;0.60;;;22.20;51.20;;;;;;4991133;28;20049;-71
2022/06/14 12:55:43;;;;;;;3.10;0.80;;;22.20;51.60;;;;;;4991528;28;20056;-71
2022/06/14 12:58:14;;;;;;;4.80;0.77;;;22.20;52.30;;;;;;4988855;28;20052;-71
2022/06/14 13:01:17;;;;;;;4.43;0.60;;;22.30;52.80;;;;;;4990696;28;20142;-71
2022/06/14 13:04:02;;;;;;;4.22;0.50;;;22.40;52.60;;;;;;5008509;28;22482;-72
2022/06/14 13:07:06;;;;;;;3.80;0.50;;;22.40;51.80;;;;;;4993916;28;20056;-72
2022/06/14 13:09:40;;;;;;;2.05;0.50;;;22.30;52.80;;;;;;4995859;28;20076;-73
2022/06/14 13:12:17;;;;;;;2.25;0.90;;;22.40;53.00;;;;;;4977954;28;20057;-71
2022/06/14 13:15:01;;;;;;;5.70;1.25;;;22.40;54.10;;;;;;4994193;28;20728;-71
2022/06/14 13:17:40;;;;;;;2.40;0.70;;;22.30;53.30;;;;;;4993452;28;20171;-72
2022/06/14 13:20:35;;;;;;;3.13;0.60;;;22.30;52.80;;;;;;4992839;28;20050;-72
2022/06/14 13:23:16;;;;;;;4.82;0.68;;;22.50;53.20;;;;;;4991454;28;20881;-71
2022/06/14 13:26:15;;;;;;;3.30;0.90;;;22.60;51.60;;;;;;4992582;28;22596;-71
2022/06/14 13:28:55;;;;;;;4.55;0.50;;;22.90;51.20;;;;;;4994707;28;21348;-71
2022/06/14 13:31:38;;;;;;;1.33;0.40;;;22.90;49.60;;;;;;4992877;28;22385;-72
2022/06/14 13:34:37;;;;;;;3.00;0.70;;;23.10;49.50;;;;;;4993804;28;20345;-71
2022/06/14 13:37:23;;;;;;;1.63;0.60;;;23.00;49.00;;;;;;4991857;28;20059;-72
2022/06/14 13:39:58;;;;;;;5.15;0.95;;;22.90;50.60;;;;;;4993614;28;20813;-72
2022/06/14 13:42:36;;;;;;;2.78;0.60;;;23.00;50.40;;;;;;4992115;28;21433;-72
2022/06/14 13:45:13;;;;;;;4.72;0.60;;;23.10;50.30;;;;;;4992020;28;20049;-72
2022/06/14 13:48:12;;;;;;;2.22;0.55;;;23.10;49.60;;;;;;4991245;28;20697;-72
2022/06/14 13:50:54;;;;;;;2.42;0.60;;;23.00;50.10;;;;;;4995936;28;20049;-72
2022/06/14 13:53:31;;;;;;;2.22;0.70;;;22.90;50.90;;;;;;4994085;28;22434;-72
2022/06/14 13:56:03;;;;;;;4.57;0.75;;;22.70;51.10;;;;;;4994365;28;20184;-72
2022/06/14 13:58:44;;;;;;;5.57;0.70;;;22.50;52.00;;;;;;4994606;28;20056;-72
2022/06/14 14:01:21;;;;;;;4.13;0.73;;;22.80;50.50;;;;;;4995393;28;20047;-72
2022/06/14 14:04:18;;;;;;;4.20;0.90;;;22.90;51.00;;;;;;4992106;28;20500;-72
2022/06/14 14:07:32;;;;;;;3.40;0.70;;;22.70;51.40;;;;;;4989437;28;20179;-71
2022/06/14 14:10:39;;;;;;;2.53;0.93;;;22.40;53.20;;;;;;4989687;28;20100;-72
2022/06/14 14:13:11;;;;;;;9.35;1.50;;;22.30;53.30;;;;;;4991016;28;20060;-72
2022/06/14 14:15:52;;;;;;;2.88;0.70;;;22.60;54.00;;;;;;4999132;28;20060;-72
2022/06/14 14:18:37;;;;;;;3.63;0.80;;;22.60;51.90;;;;;;5009547;28;20402;-72
2022/06/14 14:21:11;;;;;;;3.22;0.60;;;22.80;53.20;;;;;;4993218;28;21081;-73
2022/06/14 14:23:54;;;;;;;2.17;0.45;;;22.90;52.40;;;;;;4996340;28;20835;-72